sensor_id;sensor_type;location;lat;lon;timestamp;temperature;humidity
36716;DHT22;22699;51.034;3.730;2022-12-20T00:02:11;11.40;99.90
36716;DHT22;22699;51.034;3.730;2022-12-20T00:04:37;11.40;99.90
36716;DHT22;22699;51.034;3.730;2022-12-20T00:07:03;11.30;99.90
36716;DHT22;22699;51.034;3.730;2022-12-20T00:09:28;11.50;99.90
36716;DHT22;22699;51.034;3.730;2022-12-20T00:11:54;11.40;99.90
36716;DHT22;22699;51.034;3.730;2022-12-20T00:14:20;11.20;99.90
36716;DHT22;22699;51.034;3.730;2022-12-20T00:16:46;11.30;99.90
36716;DHT22;22699;51.034;3.730;2022-12-20T00:19:11;11.20;99.90
36716;DHT22;22699;51.034;3.730;2022-12-20T00:21:38;11.00;99.90
36716;DHT22;22699;51.034;3.730;2022-12-20T00:24:05;10.90;99.90
36716;DHT22;22699;51.034;3.730;2022-12-20T00:26:32;10.80;99.90
36716;DHT22;22699;51.034;3.730;2022-12-20T00:28:59;10.90;99.90
36716;DHT22;22699;51.034;3.730;2022-12-20T00:31:28;10.80;99.90
36716;DHT22;22699;51.034;3.730;2022-12-20T00:33:55;10.70;99.90
36716;DHT22;22699;51.034;3.730;2022-12-20T00:36:23;10.70;99.90
36716;DHT22;22699;51.034;3.730;2022-12-20T00:38:50;10.90;99.90
36716;DHT22;22699;51.034;3.730;2022-12-20T00:41:23;11.00;99.90
36716;DHT22;22699;51.034;3.730;2022-12-20T00:43:50;10.90;99.90
36716;DHT22;22699;51.034;3.730;2022-12-20T00:46:19;11.00;99.90
36716;DHT22;22699;51.034;3.730;2022-12-20T00:48:45;11.10;99.90
36716;DHT22;22699;51.034;3.730;2022-12-20T00:51:13;11.10;99.90
36716;DHT22;22699;51.034;3.730;2022-12-20T00:53:39;11.10;99.90
36716;DHT22;22699;51.034;3.730;2022-12-20T00:56:06;11.20;99.90
36716;DHT22;22699;51.034;3.730;2022-12-20T00:58:33;11.20;99.90
36716;DHT22;22699;51.034;3.730;2022-12-20T01:00:59;11.20;99.90
36716;DHT22;22699;51.034;3.730;2022-12-20T01:03:25;11.30;99.90
36716;DHT22;22699;51.034;3.730;2022-12-20T01:05:56;10.90;99.90
36716;DHT22;22699;51.034;3.730;2022-12-20T01:08:25;10.90;99.90
36716;DHT22;22699;51.034;3.730;2022-12-20T01:13:23;11.00;99.90
36716;DHT22;22699;51.034;3.730;2022-12-20T01:15:49;11.10;99.90
36716;DHT22;22699;51.034;3.730;2022-12-20T01:18:15;11.30;99.90
36716;DHT22;22699;51.034;3.730;2022-12-20T01:20:41;11.30;99.90
36716;DHT22;22699;51.034;3.730;2022-12-20T01:23:07;11.20;99.90
36716;DHT22;22699;51.034;3.730;2022-12-20T01:25:35;11.30;99.90
36716;DHT22;22699;51.034;3.730;2022-12-20T01:28:00;11.80;99.90
36716;DHT22;22699;51.034;3.730;2022-12-20T01:30:26;11.10;99.90
36716;DHT22;22699;51.034;3.730;2022-12-20T01:32:52;11.00;99.90
36716;DHT22;22699;51.034;3.730;2022-12-20T01:35:17;11.10;99.90
36716;DHT22;22699;51.034;3.730;2022-12-20T01:37:43;11.00;99.90
36716;DHT22;22699;51.034;3.730;2022-12-20T01:40:09;10.90;99.90
36716;DHT22;22699;51.034;3.730;2022-12-20T01:42:36;11.20;99.90
36716;DHT22;22699;51.034;3.730;2022-12-20T01:45:07;11.00;99.90
36716;DHT22;22699;51.034;3.730;2022-12-20T01:47:37;11.10;99.90
36716;DHT22;22699;51.034;3.730;2022-12-20T01:50:06;11.10;99.90
36716;DHT22;22699;51.034;3.730;2022-12-20T01:52:36;11.30;99.90
36716;DHT22;22699;51.034;3.730;2022-12-20T01:55:33;11.40;99.90
36716;DHT22;22699;51.034;3.730;2022-12-20T01:58:05;11.40;99.90
36716;DHT22;22699;51.034;3.730;2022-12-20T02:00:32;11.40;99.90
36716;DHT22;22699;51.034;3.730;2022-12-20T02:03:01;11.50;99.90
36716;DHT22;22699;51.034;3.730;2022-12-20T02:05:35;11.40;99.90
36716;DHT22;22699;51.034;3.730;2022-12-20T02:08:01;11.50;99.90
36716;DHT22;22699;51.034;3.730;2022-12-20T02:16:37;11.50;99.90
36716;DHT22;22699;51.034;3.730;2022-12-20T02:19:35;11.40;99.90
36716;DHT22;22699;51.034;3.730;2022-12-20T02:28:25;11.40;99.90
36716;DHT22;22699;51.034;3.730;2022-12-20T02:30:56;11.40;99.90
36716;DHT22;22699;51.034;3.730;2022-12-20T02:33:26;11.60;99.90
36716;DHT22;22699;51.034;3.730;2022-12-20T02:35:53;11.60;99.90
36716;DHT22;22699;51.034;3.730;2022-12-20T02:38:34;11.50;99.90
36716;DHT22;22699;51.034;3.730;2022-12-20T02:41:11;11.30;99.90
36716;DHT22;22699;51.034;3.730;2022-12-20T02:43:41;11.30;99.90
36716;DHT22;22699;51.034;3.730;2022-12-20T02:46:27;11.30;99.90
36716;DHT22;22699;51.034;3.730;2022-12-20T02:48:57;11.30;99.90
36716;DHT22;22699;51.034;3.730;2022-12-20T02:51:25;11.50;99.90
36716;DHT22;22699;51.034;3.730;2022-12-20T02:53:53;11.40;99.90
36716;DHT22;22699;51.034;3.730;2022-12-20T02:56:26;11.60;99.90
36716;DHT22;22699;51.034;3.730;2022-12-20T02:59:05;11.60;99.90
36716;DHT22;22699;51.034;3.730;2022-12-20T03:01:37;11.70;99.90
36716;DHT22;22699;51.034;3.730;2022-12-20T03:04:04;11.60;99.90
36716;DHT22;22699;51.034;3.730;2022-12-20T03:06:31;11.40;99.90
36716;DHT22;22699;51.034;3.730;2022-12-20T03:08:56;11.40;99.90
36716;DHT22;22699;51.034;3.730;2022-12-20T03:11:22;11.30;99.90
36716;DHT22;22699;51.034;3.730;2022-12-20T03:13:49;11.40;99.90
36716;DHT22;22699;51.034;3.730;2022-12-20T03:16:15;11.40;99.90
36716;DHT22;22699;51.034;3.730;2022-12-20T03:18:41;11.40;99.90
36716;DHT22;22699;51.034;3.730;2022-12-20T03:21:08;11.40;99.90
36716;DHT22;22699;51.034;3.730;2022-12-20T03:23:33;11.30;99.90
36716;DHT22;22699;51.034;3.730;2022-12-20T03:25:59;11.30;99.90
36716;DHT22;22699;51.034;3.730;2022-12-20T03:28:25;11.20;99.90
36716;DHT22;22699;51.034;3.730;2022-12-20T03:30:51;11.20;99.90
36716;DHT22;22699;51.034;3.730;2022-12-20T03:33:16;11.10;99.90
36716;DHT22;22699;51.034;3.730;2022-12-20T03:35:42;11.10;99.90
36716;DHT22;22699;51.034;3.730;2022-12-20T03:38:09;11.20;99.90
36716;DHT22;22699;51.034;3.730;2022-12-20T03:40:34;11.30;99.90
36716;DHT22;22699;51.034;3.730;2022-12-20T03:43:00;11.10;99.90
36716;DHT22;22699;51.034;3.730;2022-12-20T03:45:26;11.10;99.90
36716;DHT22;22699;51.034;3.730;2022-12-20T03:47:51;11.20;99.90
36716;DHT22;22699;51.034;3.730;2022-12-20T03:50:17;11.30;99.90
36716;DHT22;22699;51.034;3.730;2022-12-20T03:52:43;11.40;99.90
36716;DHT22;22699;51.034;3.730;2022-12-20T03:55:08;11.50;99.90
36716;DHT22;22699;51.034;3.730;2022-12-20T03:57:34;11.60;99.90
36716;DHT22;22699;51.034;3.730;2022-12-20T04:00:00;11.70;99.90
36716;DHT22;22699;51.034;3.730;2022-12-20T04:02:26;11.70;99.90
36716;DHT22;22699;51.034;3.730;2022-12-20T04:04:52;11.80;99.90
36716;DHT22;22699;51.034;3.730;2022-12-20T04:07:17;11.70;99.90
36716;DHT22;22699;51.034;3.730;2022-12-20T04:09:43;11.90;99.90
36716;DHT22;22699;51.034;3.730;2022-12-20T04:12:08;11.70;99.90
36716;DHT22;22699;51.034;3.730;2022-12-20T04:14:34;11.90;99.90
36716;DHT22;22699;51.034;3.730;2022-12-20T04:17:02;12.10;99.90
36716;DHT22;22699;51.034;3.730;2022-12-20T04:19:27;12.10;99.90
36716;DHT22;22699;51.034;3.730;2022-12-20T04:21:54;12.10;99.90
36716;DHT22;22699;51.034;3.730;2022-12-20T04:24:21;12.00;99.90
36716;DHT22;22699;51.034;3.730;2022-12-20T04:26:46;11.80;99.90
36716;DHT22;22699;51.034;3.730;2022-12-20T04:29:14;11.70;99.90
36716;DHT22;22699;51.034;3.730;2022-12-20T04:31:40;11.60;99.90
36716;DHT22;22699;51.034;3.730;2022-12-20T04:34:06;11.70;99.90
36716;DHT22;22699;51.034;3.730;2022-12-20T04:36:32;11.70;99.90
36716;DHT22;22699;51.034;3.730;2022-12-20T04:38:58;11.80;99.90
36716;DHT22;22699;51.034;3.730;2022-12-20T04:41:24;11.90;99.90
36716;DHT22;22699;51.034;3.730;2022-12-20T04:43:54;11.90;99.90
36716;DHT22;22699;51.034;3.730;2022-12-20T04:46:23;11.90;99.90
36716;DHT22;22699;51.034;3.730;2022-12-20T04:48:49;11.80;99.90
36716;DHT22;22699;51.034;3.730;2022-12-20T04:51:16;11.80;99.90
36716;DHT22;22699;51.034;3.730;2022-12-20T04:53:42;11.80;99.90
36716;DHT22;22699;51.034;3.730;2022-12-20T04:56:23;11.90;99.90
36716;DHT22;22699;51.034;3.730;2022-12-20T04:58:51;11.80;99.90
36716;DHT22;22699;51.034;3.730;2022-12-20T05:01:18;11.90;99.90
36716;DHT22;22699;51.034;3.730;2022-12-20T05:03:44;12.00;99.90
36716;DHT22;22699;51.034;3.730;2022-12-20T05:06:10;11.90;99.90
36716;DHT22;22699;51.034;3.730;2022-12-20T05:08:37;11.90;99.90
36716;DHT22;22699;51.034;3.730;2022-12-20T05:11:04;11.90;99.90
36716;DHT22;22699;51.034;3.730;2022-12-20T05:13:31;11.90;99.90
36716;DHT22;22699;51.034;3.730;2022-12-20T05:15:57;11.90;99.90
36716;DHT22;22699;51.034;3.730;2022-12-20T05:18:24;12.00;99.90
36716;DHT22;22699;51.034;3.730;2022-12-20T05:20:50;12.00;99.90
36716;DHT22;22699;51.034;3.730;2022-12-20T05:23:38;12.00;99.90
36716;DHT22;22699;51.034;3.730;2022-12-20T05:26:23;12.00;99.90
36716;DHT22;22699;51.034;3.730;2022-12-20T05:28:53;11.90;99.90
36716;DHT22;22699;51.034;3.730;2022-12-20T05:31:19;11.90;99.90
36716;DHT22;22699;51.034;3.730;2022-12-20T05:33:45;12.10;99.90
36716;DHT22;22699;51.034;3.730;2022-12-20T05:36:11;12.10;99.90
36716;DHT22;22699;51.034;3.730;2022-12-20T05:38:37;11.90;99.90
36716;DHT22;22699;51.034;3.730;2022-12-20T05:41:03;11.90;99.90
36716;DHT22;22699;51.034;3.730;2022-12-20T05:43:30;11.90;99.90
36716;DHT22;22699;51.034;3.730;2022-12-20T05:45:56;11.90;99.90
36716;DHT22;22699;51.034;3.730;2022-12-20T05:48:21;12.00;99.90
36716;DHT22;22699;51.034;3.730;2022-12-20T05:50:47;12.00;99.90
36716;DHT22;22699;51.034;3.730;2022-12-20T05:53:14;12.10;99.90
36716;DHT22;22699;51.034;3.730;2022-12-20T05:55:48;12.10;99.90
36716;DHT22;22699;51.034;3.730;2022-12-20T05:58:14;12.20;99.90
36716;DHT22;22699;51.034;3.730;2022-12-20T06:00:41;12.00;99.90
36716;DHT22;22699;51.034;3.730;2022-12-20T06:03:08;12.00;99.90
36716;DHT22;22699;51.034;3.730;2022-12-20T06:05:36;11.90;99.90
36716;DHT22;22699;51.034;3.730;2022-12-20T06:08:04;12.00;99.90
36716;DHT22;22699;51.034;3.730;2022-12-20T06:10:31;11.90;99.90
36716;DHT22;22699;51.034;3.730;2022-12-20T06:12:57;11.90;99.90
36716;DHT22;22699;51.034;3.730;2022-12-20T06:15:22;11.90;99.90
36716;DHT22;22699;51.034;3.730;2022-12-20T06:17:48;12.00;99.90
36716;DHT22;22699;51.034;3.730;2022-12-20T06:20:13;11.90;99.90
36716;DHT22;22699;51.034;3.730;2022-12-20T06:22:39;11.90;99.90
36716;DHT22;22699;51.034;3.730;2022-12-20T06:25:05;11.90;99.90
36716;DHT22;22699;51.034;3.730;2022-12-20T06:27:33;11.90;99.90
36716;DHT22;22699;51.034;3.730;2022-12-20T06:29:59;12.10;99.90
36716;DHT22;22699;51.034;3.730;2022-12-20T06:32:25;12.10;99.90
36716;DHT22;22699;51.034;3.730;2022-12-20T06:34:50;12.10;99.90
36716;DHT22;22699;51.034;3.730;2022-12-20T06:37:16;12.20;99.90
36716;DHT22;22699;51.034;3.730;2022-12-20T06:39:41;12.20;99.90
36716;DHT22;22699;51.034;3.730;2022-12-20T06:42:07;12.20;99.90
36716;DHT22;22699;51.034;3.730;2022-12-20T06:44:33;12.10;99.90
36716;DHT22;22699;51.034;3.730;2022-12-20T06:46:58;12.10;99.90
36716;DHT22;22699;51.034;3.730;2022-12-20T06:49:24;12.10;99.90
36716;DHT22;22699;51.034;3.730;2022-12-20T06:51:51;12.00;99.90
36716;DHT22;22699;51.034;3.730;2022-12-20T06:54:16;12.00;99.90
36716;DHT22;22699;51.034;3.730;2022-12-20T06:56:43;12.00;99.90
36716;DHT22;22699;51.034;3.730;2022-12-20T06:59:10;12.00;99.90
36716;DHT22;22699;51.034;3.730;2022-12-20T07:01:37;12.00;99.90
36716;DHT22;22699;51.034;3.730;2022-12-20T07:04:03;12.00;99.90
36716;DHT22;22699;51.034;3.730;2022-12-20T07:06:29;12.10;99.90
36716;DHT22;22699;51.034;3.730;2022-12-20T07:08:56;12.10;99.90
36716;DHT22;22699;51.034;3.730;2022-12-20T07:11:22;12.00;99.90
36716;DHT22;22699;51.034;3.730;2022-12-20T07:13:47;12.20;99.90
36716;DHT22;22699;51.034;3.730;2022-12-20T07:16:14;11.80;99.90
36716;DHT22;22699;51.034;3.730;2022-12-20T07:18:40;11.70;99.90
36716;DHT22;22699;51.034;3.730;2022-12-20T07:21:06;11.70;99.90
36716;DHT22;22699;51.034;3.730;2022-12-20T07:23:32;11.50;99.90
36716;DHT22;22699;51.034;3.730;2022-12-20T07:25:59;11.50;99.90
36716;DHT22;22699;51.034;3.730;2022-12-20T07:28:26;11.50;99.90
36716;DHT22;22699;51.034;3.730;2022-12-20T07:30:53;11.50;99.90
36716;DHT22;22699;51.034;3.730;2022-12-20T07:33:19;11.40;99.90
36716;DHT22;22699;51.034;3.730;2022-12-20T07:35:48;11.50;99.90
36716;DHT22;22699;51.034;3.730;2022-12-20T07:38:14;11.50;99.90
36716;DHT22;22699;51.034;3.730;2022-12-20T07:40:41;11.40;99.90
36716;DHT22;22699;51.034;3.730;2022-12-20T07:43:08;11.40;99.90
36716;DHT22;22699;51.034;3.730;2022-12-20T07:45:35;11.30;99.90
36716;DHT22;22699;51.034;3.730;2022-12-20T07:48:02;11.30;99.90
36716;DHT22;22699;51.034;3.730;2022-12-20T07:50:28;11.30;99.90
36716;DHT22;22699;51.034;3.730;2022-12-20T07:52:56;11.20;99.90
36716;DHT22;22699;51.034;3.730;2022-12-20T07:55:25;11.30;99.90
36716;DHT22;22699;51.034;3.730;2022-12-20T07:57:56;11.40;99.90
36716;DHT22;22699;51.034;3.730;2022-12-20T08:00:23;11.30;99.90
36716;DHT22;22699;51.034;3.730;2022-12-20T08:02:57;11.30;99.90
36716;DHT22;22699;51.034;3.730;2022-12-20T08:05:24;11.40;99.90
36716;DHT22;22699;51.034;3.730;2022-12-20T08:07:51;11.30;99.90
36716;DHT22;22699;51.034;3.730;2022-12-20T08:10:17;11.30;99.90
36716;DHT22;22699;51.034;3.730;2022-12-20T08:12:46;11.50;99.90
36716;DHT22;22699;51.034;3.730;2022-12-20T08:15:13;11.30;99.90
36716;DHT22;22699;51.034;3.730;2022-12-20T08:17:38;11.30;99.90
36716;DHT22;22699;51.034;3.730;2022-12-20T08:20:04;11.60;99.90
36716;DHT22;22699;51.034;3.730;2022-12-20T08:22:31;11.40;99.90
36716;DHT22;22699;51.034;3.730;2022-12-20T08:24:58;11.40;99.90
36716;DHT22;22699;51.034;3.730;2022-12-20T08:27:26;11.40;99.90
36716;DHT22;22699;51.034;3.730;2022-12-20T08:29:52;11.30;99.90
36716;DHT22;22699;51.034;3.730;2022-12-20T08:32:17;11.40;99.90
36716;DHT22;22699;51.034;3.730;2022-12-20T08:34:43;11.30;99.90
36716;DHT22;22699;51.034;3.730;2022-12-20T08:37:10;11.40;99.90
36716;DHT22;22699;51.034;3.730;2022-12-20T08:39:36;11.40;99.90
36716;DHT22;22699;51.034;3.730;2022-12-20T08:42:07;11.40;99.90
36716;DHT22;22699;51.034;3.730;2022-12-20T08:44:34;11.50;99.90
36716;DHT22;22699;51.034;3.730;2022-12-20T08:47:18;11.50;99.90
36716;DHT22;22699;51.034;3.730;2022-12-20T08:49:54;11.40;99.90
36716;DHT22;22699;51.034;3.730;2022-12-20T08:52:36;11.40;99.90
36716;DHT22;22699;51.034;3.730;2022-12-20T08:55:15;11.40;99.90
36716;DHT22;22699;51.034;3.730;2022-12-20T08:57:42;11.50;99.90
36716;DHT22;22699;51.034;3.730;2022-12-20T09:00:25;11.50;99.90
36716;DHT22;22699;51.034;3.730;2022-12-20T09:03:05;11.50;99.90
36716;DHT22;22699;51.034;3.730;2022-12-20T09:05:50;11.60;99.90
36716;DHT22;22699;51.034;3.730;2022-12-20T09:08:21;11.50;99.90
36716;DHT22;22699;51.034;3.730;2022-12-20T09:10:52;11.40;99.90
36716;DHT22;22699;51.034;3.730;2022-12-20T09:13:28;11.50;99.90
36716;DHT22;22699;51.034;3.730;2022-12-20T09:15:55;11.60;99.90
36716;DHT22;22699;51.034;3.730;2022-12-20T09:18:27;11.50;99.90
36716;DHT22;22699;51.034;3.730;2022-12-20T09:20:53;11.50;99.90
36716;DHT22;22699;51.034;3.730;2022-12-20T09:23:24;11.40;99.90
36716;DHT22;22699;51.034;3.730;2022-12-20T09:26:05;11.40;99.90
36716;DHT22;22699;51.034;3.730;2022-12-20T09:28:37;11.30;99.90
36716;DHT22;22699;51.034;3.730;2022-12-20T09:31:26;11.40;99.90
36716;DHT22;22699;51.034;3.730;2022-12-20T09:34:18;11.50;99.90
36716;DHT22;22699;51.034;3.730;2022-12-20T09:37:13;11.50;99.90
36716;DHT22;22699;51.034;3.730;2022-12-20T09:40:02;11.40;99.90
36716;DHT22;22699;51.034;3.730;2022-12-20T09:42:41;11.50;99.90
36716;DHT22;22699;51.034;3.730;2022-12-20T09:45:36;11.40;99.90
36716;DHT22;22699;51.034;3.730;2022-12-20T09:48:10;11.40;99.90
36716;DHT22;22699;51.034;3.730;2022-12-20T09:56:31;11.40;99.90
36716;DHT22;22699;51.034;3.730;2022-12-20T09:59:25;11.50;99.90
36716;DHT22;22699;51.034;3.730;2022-12-20T10:02:11;11.60;99.90
36716;DHT22;22699;51.034;3.730;2022-12-20T10:04:52;11.50;99.90
36716;DHT22;22699;51.034;3.730;2022-12-20T10:07:44;11.50;99.90
36716;DHT22;22699;51.034;3.730;2022-12-20T10:10:36;11.50;99.90
36716;DHT22;22699;51.034;3.730;2022-12-20T10:21:46;11.80;99.90
36716;DHT22;22699;51.034;3.730;2022-12-20T10:24:36;11.60;99.90
36716;DHT22;22699;51.034;3.730;2022-12-20T10:27:16;11.70;99.90
36716;DHT22;22699;51.034;3.730;2022-12-20T10:29:45;11.70;99.90
36716;DHT22;22699;51.034;3.730;2022-12-20T10:32:22;11.70;99.90
36716;DHT22;22699;51.034;3.730;2022-12-20T10:37:28;11.80;99.90
36716;DHT22;22699;51.034;3.730;2022-12-20T10:39:55;11.70;99.90
36716;DHT22;22699;51.034;3.730;2022-12-20T10:42:39;11.60;99.90
36716;DHT22;22699;51.034;3.730;2022-12-20T10:45:27;11.60;99.90
36716;DHT22;22699;51.034;3.730;2022-12-20T10:47:59;11.50;99.90
36716;DHT22;22699;51.034;3.730;2022-12-20T10:50:38;11.60;99.90
36716;DHT22;22699;51.034;3.730;2022-12-20T10:53:21;11.60;99.90
36716;DHT22;22699;51.034;3.730;2022-12-20T10:55:52;11.60;99.90
36716;DHT22;22699;51.034;3.730;2022-12-20T11:01:15;11.50;99.90
36716;DHT22;22699;51.034;3.730;2022-12-20T11:04:06;11.50;99.90
36716;DHT22;22699;51.034;3.730;2022-12-20T11:06:45;11.50;99.90
36716;DHT22;22699;51.034;3.730;2022-12-20T11:09:34;11.70;99.90
36716;DHT22;22699;51.034;3.730;2022-12-20T11:12:24;11.60;99.90
36716;DHT22;22699;51.034;3.730;2022-12-20T11:15:15;11.60;99.90
36716;DHT22;22699;51.034;3.730;2022-12-20T11:17:46;11.60;99.90
36716;DHT22;22699;51.034;3.730;2022-12-20T11:20:32;11.70;99.90
36716;DHT22;22699;51.034;3.730;2022-12-20T11:26:21;11.60;99.90
36716;DHT22;22699;51.034;3.730;2022-12-20T11:39:49;11.90;99.90
36716;DHT22;22699;51.034;3.730;2022-12-20T11:45:03;11.70;99.90
36716;DHT22;22699;51.034;3.730;2022-12-20T11:47:50;11.70;99.90
36716;DHT22;22699;51.034;3.730;2022-12-20T11:50:39;11.50;99.90
36716;DHT22;22699;51.034;3.730;2022-12-20T11:53:12;11.50;99.90
36716;DHT22;22699;51.034;3.730;2022-12-20T11:55:43;11.40;99.90
36716;DHT22;22699;51.034;3.730;2022-12-20T11:58:18;11.40;99.90
36716;DHT22;22699;51.034;3.730;2022-12-20T12:01:08;11.50;99.90
36716;DHT22;22699;51.034;3.730;2022-12-20T12:03:58;11.50;99.90
36716;DHT22;22699;51.034;3.730;2022-12-20T12:06:36;11.50;99.90
36716;DHT22;22699;51.034;3.730;2022-12-20T12:09:13;11.50;99.90
36716;DHT22;22699;51.034;3.730;2022-12-20T12:12:02;11.60;99.90
36716;DHT22;22699;51.034;3.730;2022-12-20T12:15:02;11.70;99.90
36716;DHT22;22699;51.034;3.730;2022-12-20T12:17:50;11.60;99.90
36716;DHT22;22699;51.034;3.730;2022-12-20T12:22:42;11.50;99.90
36716;DHT22;22699;51.034;3.730;2022-12-20T12:25:14;11.40;99.90
36716;DHT22;22699;51.034;3.730;2022-12-20T12:27:42;11.30;99.90
36716;DHT22;22699;51.034;3.730;2022-12-20T12:30:14;11.30;99.90
36716;DHT22;22699;51.034;3.730;2022-12-20T12:32:52;11.30;99.90
36716;DHT22;22699;51.034;3.730;2022-12-20T12:35:37;11.20;99.90
36716;DHT22;22699;51.034;3.730;2022-12-20T12:38:50;11.20;99.90
36716;DHT22;22699;51.034;3.730;2022-12-20T12:46:44;11.10;99.90
36716;DHT22;22699;51.034;3.730;2022-12-20T12:49:20;11.10;99.90
36716;DHT22;22699;51.034;3.730;2022-12-20T12:52:25;11.20;99.90
36716;DHT22;22699;51.034;3.730;2022-12-20T12:54:51;11.30;99.90
36716;DHT22;22699;51.034;3.730;2022-12-20T12:57:18;11.30;99.90
36716;DHT22;22699;51.034;3.730;2022-12-20T12:59:45;11.30;99.90
36716;DHT22;22699;51.034;3.730;2022-12-20T13:18:00;11.20;99.90
36716;DHT22;22699;51.034;3.730;2022-12-20T13:20:31;11.30;99.90
36716;DHT22;22699;51.034;3.730;2022-12-20T13:23:15;11.10;99.90
36716;DHT22;22699;51.034;3.730;2022-12-20T13:25:49;11.10;99.90
36716;DHT22;22699;51.034;3.730;2022-12-20T13:43:47;11.10;99.90
36716;DHT22;22699;51.034;3.730;2022-12-20T13:46:20;11.10;99.90
36716;DHT22;22699;51.034;3.730;2022-12-20T13:51:20;11.00;99.90
36716;DHT22;22699;51.034;3.730;2022-12-20T13:54:00;11.00;99.90
36716;DHT22;22699;51.034;3.730;2022-12-20T13:59:24;11.10;99.90
36716;DHT22;22699;51.034;3.730;2022-12-20T14:01:56;11.10;99.90
36716;DHT22;22699;51.034;3.730;2022-12-20T14:04:25;11.10;99.90
36716;DHT22;22699;51.034;3.730;2022-12-20T14:07:00;11.20;99.90
36716;DHT22;22699;51.034;3.730;2022-12-20T14:09:36;11.20;99.90
36716;DHT22;22699;51.034;3.730;2022-12-20T14:12:13;11.20;99.90
36716;DHT22;22699;51.034;3.730;2022-12-20T14:14:44;11.20;99.90
36716;DHT22;22699;51.034;3.730;2022-12-20T14:17:24;11.10;99.90
36716;DHT22;22699;51.034;3.730;2022-12-20T14:20:13;11.20;99.90
36716;DHT22;22699;51.034;3.730;2022-12-20T14:23:10;11.20;99.90
36716;DHT22;22699;51.034;3.730;2022-12-20T14:25:44;11.20;99.90
36716;DHT22;22699;51.034;3.730;2022-12-20T14:28:18;11.20;99.90
36716;DHT22;22699;51.034;3.730;2022-12-20T14:30:46;11.20;99.90
36716;DHT22;22699;51.034;3.730;2022-12-20T14:35:52;10.90;99.90
36716;DHT22;22699;51.034;3.730;2022-12-20T14:38:29;10.90;99.90
36716;DHT22;22699;51.034;3.730;2022-12-20T14:40:57;10.70;99.90
36716;DHT22;22699;51.034;3.730;2022-12-20T14:43:31;10.60;99.90
36716;DHT22;22699;51.034;3.730;2022-12-20T14:46:16;10.70;99.90
36716;DHT22;22699;51.034;3.730;2022-12-20T14:48:44;10.70;99.90
36716;DHT22;22699;51.034;3.730;2022-12-20T14:51:12;10.70;99.90
36716;DHT22;22699;51.034;3.730;2022-12-20T14:53:44;10.80;99.90
36716;DHT22;22699;51.034;3.730;2022-12-20T14:56:17;10.90;99.90
36716;DHT22;22699;51.034;3.730;2022-12-20T14:58:44;11.00;99.90
36716;DHT22;22699;51.034;3.730;2022-12-20T15:01:26;10.90;99.90
36716;DHT22;22699;51.034;3.730;2022-12-20T15:04:00;10.90;99.90
36716;DHT22;22699;51.034;3.730;2022-12-20T15:06:49;10.90;99.90
36716;DHT22;22699;51.034;3.730;2022-12-20T15:09:39;11.00;99.90
36716;DHT22;22699;51.034;3.730;2022-12-20T15:12:08;11.00;99.90
36716;DHT22;22699;51.034;3.730;2022-12-20T15:14:40;11.00;99.90
36716;DHT22;22699;51.034;3.730;2022-12-20T15:17:12;10.90;99.90
36716;DHT22;22699;51.034;3.730;2022-12-20T15:19:39;11.10;99.90
36716;DHT22;22699;51.034;3.730;2022-12-20T15:22:19;11.10;99.90
36716;DHT22;22699;51.034;3.730;2022-12-20T15:24:48;11.10;99.90
36716;DHT22;22699;51.034;3.730;2022-12-20T15:27:17;11.10;99.90
36716;DHT22;22699;51.034;3.730;2022-12-20T15:29:46;10.90;99.90
36716;DHT22;22699;51.034;3.730;2022-12-20T15:32:23;11.10;99.90
36716;DHT22;22699;51.034;3.730;2022-12-20T15:34:59;11.10;99.90
36716;DHT22;22699;51.034;3.730;2022-12-20T15:37:25;11.10;99.90
36716;DHT22;22699;51.034;3.730;2022-12-20T15:39:51;11.20;99.90
36716;DHT22;22699;51.034;3.730;2022-12-20T15:42:18;11.30;99.90
36716;DHT22;22699;51.034;3.730;2022-12-20T15:44:47;11.20;99.90
36716;DHT22;22699;51.034;3.730;2022-12-20T15:47:16;11.00;99.90
36716;DHT22;22699;51.034;3.730;2022-12-20T15:49:42;10.90;99.90
36716;DHT22;22699;51.034;3.730;2022-12-20T15:52:17;10.90;99.90
36716;DHT22;22699;51.034;3.730;2022-12-20T15:54:43;10.80;99.90
36716;DHT22;22699;51.034;3.730;2022-12-20T15:57:12;10.80;99.90
36716;DHT22;22699;51.034;3.730;2022-12-20T15:59:38;10.80;99.90
36716;DHT22;22699;51.034;3.730;2022-12-20T16:02:23;11.00;99.90
36716;DHT22;22699;51.034;3.730;2022-12-20T16:04:52;11.10;99.90
36716;DHT22;22699;51.034;3.730;2022-12-20T16:07:18;11.10;99.90
36716;DHT22;22699;51.034;3.730;2022-12-20T16:09:45;11.20;99.90
36716;DHT22;22699;51.034;3.730;2022-12-20T16:12:25;11.30;99.90
36716;DHT22;22699;51.034;3.730;2022-12-20T16:14:58;11.30;99.90
36716;DHT22;22699;51.034;3.730;2022-12-20T16:17:24;11.20;99.90
36716;DHT22;22699;51.034;3.730;2022-12-20T16:19:52;11.20;99.90
36716;DHT22;22699;51.034;3.730;2022-12-20T16:22:20;11.20;99.90
36716;DHT22;22699;51.034;3.730;2022-12-20T16:24:48;11.10;99.90
36716;DHT22;22699;51.034;3.730;2022-12-20T16:27:14;11.10;99.90
36716;DHT22;22699;51.034;3.730;2022-12-20T16:29:42;11.20;99.90
36716;DHT22;22699;51.034;3.730;2022-12-20T16:32:15;11.10;99.90
36716;DHT22;22699;51.034;3.730;2022-12-20T16:34:43;11.10;99.90
36716;DHT22;22699;51.034;3.730;2022-12-20T16:37:08;11.10;99.90
36716;DHT22;22699;51.034;3.730;2022-12-20T16:39:43;11.10;99.90
36716;DHT22;22699;51.034;3.730;2022-12-20T16:42:18;11.20;99.90
36716;DHT22;22699;51.034;3.730;2022-12-20T16:44:59;11.10;99.90
36716;DHT22;22699;51.034;3.730;2022-12-20T16:47:27;11.20;99.90
36716;DHT22;22699;51.034;3.730;2022-12-20T16:49:59;11.20;99.90
36716;DHT22;22699;51.034;3.730;2022-12-20T16:52:24;11.20;99.90
36716;DHT22;22699;51.034;3.730;2022-12-20T16:54:56;11.20;99.90
36716;DHT22;22699;51.034;3.730;2022-12-20T16:57:32;11.10;99.90
36716;DHT22;22699;51.034;3.730;2022-12-20T17:00:07;11.20;99.90
36716;DHT22;22699;51.034;3.730;2022-12-20T17:02:33;11.30;99.90
36716;DHT22;22699;51.034;3.730;2022-12-20T17:05:03;11.40;99.90
36716;DHT22;22699;51.034;3.730;2022-12-20T17:07:37;11.40;99.90
36716;DHT22;22699;51.034;3.730;2022-12-20T17:10:07;11.40;99.90
36716;DHT22;22699;51.034;3.730;2022-12-20T17:12:40;11.20;99.90
36716;DHT22;22699;51.034;3.730;2022-12-20T17:15:15;11.20;99.90
36716;DHT22;22699;51.034;3.730;2022-12-20T17:17:54;11.30;99.90
36716;DHT22;22699;51.034;3.730;2022-12-20T17:20:29;11.20;99.90
36716;DHT22;22699;51.034;3.730;2022-12-20T17:22:57;11.10;99.90
36716;DHT22;22699;51.034;3.730;2022-12-20T17:25:28;11.00;99.90
36716;DHT22;22699;51.034;3.730;2022-12-20T17:27:57;11.10;99.90
36716;DHT22;22699;51.034;3.730;2022-12-20T17:30:25;11.00;99.90
36716;DHT22;22699;51.034;3.730;2022-12-20T17:33:01;11.00;99.90
36716;DHT22;22699;51.034;3.730;2022-12-20T17:35:30;11.20;99.90